Falcon, Kentucky
Current Conditions -  °F | °C
As of 4:35 AM on Saturday 20 Dec 2014 (Local Time) from KSJS Reporting Station
Broken Clouds Broken Clouds  
Wind Chill: 21°   Ceiling: 11000
Heat Index: 27°   Visibility: 10mi
Dew Point: 23°   Wind: 5mph
Humidity: 88%   Direction: 60°ENE
Pressure: 30.2"   Gusts: NA
Location:  37.79°N, 83°W
Report Text: KSJS 200935Z AUTO 06004KT 10SM BKN110 M03/M05 A3020 RMK AO2 T10301048
Loading
Personal Weather Stations






























Interactive Weather Map New forecast layout! Learn more

10-Day Weather Forecast

Advertisements
Track Severe Weather on mobile